TimeMDT,TemperatureF,Dew PointF,Humidity,Sea Level PressureIn,VisibilityMPH,Wind Direction,Wind SpeedMPH,Gust SpeedMPH,PrecipitationIn,Events,Conditions,WindDirDegrees,DateUTC
12:15 AM,37.4,10.4,33,30.14,10.0,SE,6.9,-,N/A,,Unknown,130,2013-05-04 06:15:00
12:35 AM,37.4,10.4,33,30.14,10.0,SE,4.6,-,N/A,,Unknown,130,2013-05-04 06:35:00
12:55 AM,37.4,10.4,33,30.14,10.0,ESE,5.8,-,N/A,,Unknown,120,2013-05-04 06:55:00
1:15 AM,35.6,10.4,35,30.13,10.0,ESE,9.2,-,N/A,,Unknown,120,2013-05-04 07:15:00
1:35 AM,35.6,10.4,35,30.12,10.0,East,5.8,-,N/A,,Unknown,90,2013-05-04 07:35:00
1:55 AM,35.6,10.4,35,30.12,10.0,ESE,6.9,-,N/A,,Unknown,110,2013-05-04 07:55:00
2:15 AM,33.8,10.4,38,30.12,10.0,Calm,Calm,-,N/A,,Unknown,0,2013-05-04 08:15:00
2:35 AM,35.6,10.4,35,30.11,10.0,SE,6.9,-,N/A,,Unknown,130,2013-05-04 08:35:00
2:55 AM,33.8,10.4,38,30.11,10.0,ESE,6.9,-,N/A,,Unknown,120,2013-05-04 08:55:00
3:15 AM,33.8,10.4,38,30.10,10.0,ESE,8.1,-,N/A,,Unknown,110,2013-05-04 09:15:00
3:35 AM,33.8,12.2,41,30.10,10.0,ESE,3.5,-,N/A,,Unknown,110,2013-05-04 09:35:00
3:55 AM,33.8,12.2,41,30.10,10.0,ESE,5.8,-,N/A,,Unknown,110,2013-05-04 09:55:00
4:15 AM,32.0,12.2,44,30.11,10.0,ESE,4.6,-,N/A,,Unknown,120,2013-05-04 10:15:00
4:35 AM,33.8,12.2,41,30.11,10.0,ESE,5.8,-,N/A,,Unknown,120,2013-05-04 10:35:00
4:55 AM,33.8,12.2,41,30.10,10.0,ESE,6.9,-,N/A,,Unknown,120,2013-05-04 10:55:00
5:15 AM,32.0,10.4,41,30.10,10.0,ESE,8.1,-,N/A,,Unknown,120,2013-05-04 11:15:00
5:35 AM,33.8,10.4,38,30.10,10.0,SE,5.8,-,N/A,,Unknown,130,2013-05-04 11:35:00
5:55 AM,33.8,10.4,38,30.10,10.0,ESE,6.9,-,N/A,,Unknown,110,2013-05-04 11:55:00
6:15 AM,32.0,12.2,44,30.10,10.0,SE,6.9,-,N/A,,Unknown,140,2013-05-04 12:15:00
6:35 AM,32.0,12.2,44,30.10,10.0,ESE,6.9,-,N/A,,Unknown,120,2013-05-04 12:35:00
6:55 AM,33.8,10.4,38,30.10,10.0,SE,3.5,-,N/A,,Unknown,130,2013-05-04 12:55:00
7:15 AM,33.8,12.2,41,30.10,10.0,Calm,Calm,-,N/A,,Unknown,0,2013-05-04 13:15:00
7:35 AM,37.4,10.4,33,30.10,10.0,ESE,4.6,-,N/A,,Unknown,120,2013-05-04 13:35:00
7:55 AM,39.2,10.4,31,30.10,10.0,East,4.6,-,N/A,,Unknown,90,2013-05-04 13:55:00
8:15 AM,41.0,12.2,31,30.10,10.0,East,3.5,-,N/A,,Unknown,100,2013-05-04 14:15:00
8:35 AM,42.8,10.4,27,30.10,10.0,Calm,Calm,-,N/A,,Unknown,0,2013-05-04 14:35:00
8:55 AM,42.8,12.2,29,30.10,10.0,Calm,Calm,-,N/A,,Unknown,0,2013-05-04 14:55:00
9:15 AM,46.4,10.4,23,30.09,10.0,Calm,Calm,-,N/A,,Unknown,0,2013-05-04 15:15:00
9:35 AM,48.2,5.0,17,30.09,10.0,WSW,3.5,-,N/A,,Unknown,240,2013-05-04 15:35:00
9:55 AM,50.0,5.0,16,30.10,10.0,West,4.6,-,N/A,,Unknown,260,2013-05-04 15:55:00
10:15 AM,51.8,5.0,15,30.09,10.0,WSW,5.8,-,N/A,,Unknown,240,2013-05-04 16:15:00
10:35 AM,51.8,3.2,14,30.09,10.0,West,4.6,-,N/A,,Unknown,260,2013-05-04 16:35:00
10:55 AM,53.6,3.2,13,30.10,10.0,Calm,Calm,-,N/A,,Unknown,0,2013-05-04 16:55:00
11:15 AM,53.6,5.0,14,30.09,10.0,WSW,4.6,-,N/A,,Unknown,250,2013-05-04 17:15:00
11:35 AM,55.4,6.8,14,30.09,10.0,West,11.5,18.4,N/A,,Unknown,270,2013-05-04 17:35:00
11:55 AM,55.4,5.0,13,30.09,10.0,SSE,6.9,18.4,N/A,,Unknown,160,2013-05-04 17:55:00
12:15 PM,55.4,6.8,14,30.09,10.0,SW,10.4,-,N/A,,Unknown,220,2013-05-04 18:15:00
12:35 PM,53.6,8.6,16,30.09,10.0,Calm,Calm,-,N/A,,Unknown,0,2013-05-04 18:35:00
12:55 PM,53.6,8.6,16,30.09,10.0,Calm,Calm,-,N/A,,Unknown,0,2013-05-04 18:55:00
1:15 PM,55.4,8.6,15,30.08,10.0,SSE,15.0,23.0,N/A,,Unknown,160,2013-05-04 19:15:00
1:35 PM,53.6,6.8,15,30.08,10.0,SSE,5.8,-,N/A,,Unknown,160,2013-05-04 19:35:00
1:55 PM,55.4,6.8,14,30.08,10.0,SSW,5.8,17.3,N/A,,Unknown,200,2013-05-04 19:55:00
2:15 PM,53.6,6.8,15,30.09,10.0,West,12.7,-,N/A,,Unknown,260,2013-05-04 20:15:00
2:35 PM,53.6,6.8,15,30.08,10.0,Calm,Calm,-,N/A,,Unknown,0,2013-05-04 20:35:00
2:55 PM,53.6,6.8,15,30.07,10.0,SSE,8.1,16.1,N/A,,Unknown,150,2013-05-04 20:55:00
3:15 PM,53.6,12.2,19,30.07,10.0,NE,6.9,-,N/A,,Unknown,50,2013-05-04 21:15:00
3:35 PM,53.6,8.6,16,30.07,10.0,East,3.5,-,N/A,,Unknown,80,2013-05-04 21:35:00
3:55 PM,53.6,14.0,21,30.07,10.0,ENE,4.6,-,N/A,,Unknown,60,2013-05-04 21:55:00
4:15 PM,53.6,14.0,21,30.07,10.0,East,6.9,-,N/A,,Unknown,100,2013-05-04 22:15:00
4:35 PM,53.6,10.4,18,30.06,10.0,SE,13.8,20.7,N/A,,Unknown,140,2013-05-04 22:35:00
4:55 PM,53.6,10.4,18,30.06,10.0,ESE,9.2,-,N/A,,Unknown,120,2013-05-04 22:55:00
5:15 PM,53.6,8.6,16,30.06,10.0,SSE,13.8,19.6,N/A,,Unknown,150,2013-05-04 23:15:00
5:35 PM,53.6,8.6,16,30.06,10.0,SE,11.5,-,N/A,,Unknown,140,2013-05-04 23:35:00
5:55 PM,53.6,8.6,16,30.06,10.0,ESE,10.4,-,N/A,,Unknown,120,2013-05-04 23:55:00
6:15 PM,53.6,10.4,18,30.07,10.0,SE,9.2,18.4,N/A,,Unknown,130,2013-05-05 00:15:00
6:35 PM,53.6,10.4,18,30.07,10.0,SE,5.8,17.3,N/A,,Unknown,140,2013-05-05 00:35:00
6:55 PM,53.6,10.4,18,30.07,10.0,East,9.2,-,N/A,,Unknown,90,2013-05-05 00:55:00
7:15 PM,51.8,12.2,21,30.07,10.0,ENE,5.8,-,N/A,,Unknown,70,2013-05-05 01:15:00
7:35 PM,53.6,8.6,16,30.07,10.0,ESE,6.9,-,N/A,,Unknown,110,2013-05-05 01:35:00
7:55 PM,51.8,10.4,19,30.07,10.0,ESE,3.5,-,N/A,,Unknown,120,2013-05-05 01:55:00
8:15 PM,50.0,10.4,20,30.08,10.0,Calm,Calm,-,N/A,,Unknown,0,2013-05-05 02:15:00
8:35 PM,50.0,10.4,20,30.08,10.0,Calm,Calm,-,N/A,,Unknown,0,2013-05-05 02:35:00
8:55 PM,50.0,10.4,20,30.09,10.0,Calm,Calm,-,N/A,,Unknown,0,2013-05-05 02:55:00
9:35 PM,48.2,10.4,22,30.10,10.0,Calm,Calm,-,N/A,,Unknown,0,2013-05-05 03:35:00
9:55 PM,46.4,10.4,23,30.10,10.0,Calm,Calm,-,N/A,,Unknown,0,2013-05-05 03:55:00
10:15 PM,46.4,10.4,23,30.10,10.0,SE,3.5,-,N/A,,Unknown,140,2013-05-05 04:15:00
10:35 PM,46.4,10.4,23,30.10,10.0,ESE,6.9,-,N/A,,Unknown,110,2013-05-05 04:35:00
10:55 PM,44.6,12.2,27,30.10,10.0,ESE,8.1,-,N/A,,Unknown,120,2013-05-05 04:55:00
11:15 PM,44.6,12.2,27,30.10,10.0,ESE,6.9,-,N/A,,Unknown,120,2013-05-05 05:15:00
11:35 PM,44.6,12.2,27,30.10,10.0,ESE,6.9,-,N/A,,Unknown,120,2013-05-05 05:35:00
11:55 PM,44.6,12.2,27,30.10,10.0,East,5.8,-,N/A,,Unknown,80,2013-05-05 05:55:00